CheckWX is a tool to help pilots better visualize weather data.  It is not intended as a substitute for an official pre-flight weather briefing.

19:47:03 UTC

EGTE TAF
Exeter International Airport
Exeter, United Kingdom
TAF EGTE 291701Z 2918/3003 23008KT 9999 SCT030 TEMPO 3002/3003 BKN014

Jan-29@
18:00 UTC

Jan-29 @ 18:00 UTC

Jan-30@
03:00 UTC

Jan-30 @ 03:00 UTC

TAF EGTE 291701Z 2918/3003 23008KT 9999 SCT030
Wind
  • 230° at 8 KTS
Cloud Levels
  • Scattered at 3,000' AGL

Jan-30@
02:00 UTC

Jan-30 @ 02:00 UTC

Jan-30@
03:00 UTC

Jan-30 @ 03:00 UTC

TEMPO 3002/3003 BKN014

Temporary

Temporary Changes expected for less than half the time period

Cloud Levels
  • Broken at 1,400' AGL